sensor_id;sensor_type;location;lat;lon;timestamp;P1;durP1;ratioP1;P2;durP2;ratioP2
21827;SDS011;11076;47.942;11.804;2024-01-16T00:00:08;3.77;;;1.57;;
21827;SDS011;11076;47.942;11.804;2024-01-16T00:05:11;2.20;;;1.60;;
21827;SDS011;11076;47.942;11.804;2024-01-16T00:10:13;2.33;;;1.83;;
21827;SDS011;11076;47.942;11.804;2024-01-16T00:15:16;1.90;;;1.27;;
21827;SDS011;11076;47.942;11.804;2024-01-16T00:20:18;4.10;;;1.73;;
21827;SDS011;11076;47.942;11.804;2024-01-16T00:25:20;2.40;;;1.43;;
21827;SDS011;11076;47.942;11.804;2024-01-16T00:30:23;2.07;;;1.60;;
21827;SDS011;11076;47.942;11.804;2024-01-16T00:35:25;2.20;;;1.63;;
21827;SDS011;11076;47.942;11.804;2024-01-16T00:40:28;2.00;;;1.60;;
21827;SDS011;11076;47.942;11.804;2024-01-16T00:45:30;1.60;;;1.50;;
21827;SDS011;11076;47.942;11.804;2024-01-16T00:50:32;3.13;;;1.53;;
21827;SDS011;11076;47.942;11.804;2024-01-16T00:55:35;3.87;;;2.30;;
21827;SDS011;11076;47.942;11.804;2024-01-16T01:00:37;2.90;;;1.63;;
21827;SDS011;11076;47.942;11.804;2024-01-16T01:05:40;3.03;;;2.50;;
21827;SDS011;11076;47.942;11.804;2024-01-16T01:10:42;2.03;;;1.83;;
21827;SDS011;11076;47.942;11.804;2024-01-16T01:15:45;3.30;;;1.87;;
21827;SDS011;11076;47.942;11.804;2024-01-16T01:20:47;2.70;;;2.23;;
21827;SDS011;11076;47.942;11.804;2024-01-16T01:25:50;1.77;;;1.57;;
21827;SDS011;11076;47.942;11.804;2024-01-16T01:30:53;3.53;;;2.30;;
21827;SDS011;11076;47.942;11.804;2024-01-16T01:35:56;2.67;;;2.23;;
21827;SDS011;11076;47.942;11.804;2024-01-16T01:40:58;6.13;;;2.30;;
21827;SDS011;11076;47.942;11.804;2024-01-16T01:51:18;3.87;;;2.20;;
21827;SDS011;11076;47.942;11.804;2024-01-16T01:56:21;1.37;;;1.33;;
21827;SDS011;11076;47.942;11.804;2024-01-16T02:01:26;3.20;;;2.27;;
21827;SDS011;11076;47.942;11.804;2024-01-16T02:06:31;1.77;;;1.27;;
21827;SDS011;11076;47.942;11.804;2024-01-16T02:11:34;1.60;;;1.50;;
21827;SDS011;11076;47.942;11.804;2024-01-16T02:16:38;2.00;;;1.80;;
21827;SDS011;11076;47.942;11.804;2024-01-16T02:21:44;1.93;;;1.80;;
21827;SDS011;11076;47.942;11.804;2024-01-16T02:26:53;2.27;;;1.97;;
21827;SDS011;11076;47.942;11.804;2024-01-16T02:31:55;2.53;;;1.87;;
21827;SDS011;11076;47.942;11.804;2024-01-16T02:36:58;1.87;;;1.70;;
21827;SDS011;11076;47.942;11.804;2024-01-16T02:42:00;4.53;;;2.37;;
21827;SDS011;11076;47.942;11.804;2024-01-16T02:47:03;5.10;;;2.40;;
21827;SDS011;11076;47.942;11.804;2024-01-16T02:52:05;2.17;;;2.00;;
21827;SDS011;11076;47.942;11.804;2024-01-16T02:57:07;2.93;;;2.00;;
21827;SDS011;11076;47.942;11.804;2024-01-16T03:02:10;2.33;;;1.77;;
21827;SDS011;11076;47.942;11.804;2024-01-16T03:07:13;3.07;;;1.97;;
21827;SDS011;11076;47.942;11.804;2024-01-16T03:12:15;4.63;;;2.83;;
21827;SDS011;11076;47.942;11.804;2024-01-16T03:17:18;2.30;;;1.50;;
21827;SDS011;11076;47.942;11.804;2024-01-16T03:22:20;3.27;;;2.27;;
21827;SDS011;11076;47.942;11.804;2024-01-16T03:27:24;2.47;;;1.63;;
21827;SDS011;11076;47.942;11.804;2024-01-16T03:32:27;3.37;;;2.10;;
21827;SDS011;11076;47.942;11.804;2024-01-16T03:37:29;5.47;;;2.37;;
21827;SDS011;11076;47.942;11.804;2024-01-16T03:42:32;5.20;;;3.40;;
21827;SDS011;11076;47.942;11.804;2024-01-16T03:47:34;3.70;;;2.70;;
21827;SDS011;11076;47.942;11.804;2024-01-16T03:52:36;6.37;;;2.33;;
21827;SDS011;11076;47.942;11.804;2024-01-16T03:57:39;6.60;;;2.60;;
21827;SDS011;11076;47.942;11.804;2024-01-16T04:02:41;1.70;;;1.53;;
21827;SDS011;11076;47.942;11.804;2024-01-16T04:07:44;3.23;;;2.00;;
21827;SDS011;11076;47.942;11.804;2024-01-16T04:12:46;2.30;;;2.07;;
21827;SDS011;11076;47.942;11.804;2024-01-16T04:17:48;4.10;;;2.43;;
21827;SDS011;11076;47.942;11.804;2024-01-16T04:22:51;2.50;;;2.03;;
21827;SDS011;11076;47.942;11.804;2024-01-16T04:27:53;2.90;;;2.60;;
21827;SDS011;11076;47.942;11.804;2024-01-16T04:32:55;5.57;;;2.00;;
21827;SDS011;11076;47.942;11.804;2024-01-16T04:37:58;4.60;;;2.97;;
21827;SDS011;11076;47.942;11.804;2024-01-16T04:43:00;3.03;;;2.23;;
21827;SDS011;11076;47.942;11.804;2024-01-16T04:48:03;2.87;;;2.57;;
21827;SDS011;11076;47.942;11.804;2024-01-16T04:53:06;6.13;;;3.07;;
21827;SDS011;11076;47.942;11.804;2024-01-16T04:58:08;4.83;;;2.70;;
21827;SDS011;11076;47.942;11.804;2024-01-16T05:03:11;2.47;;;1.80;;
21827;SDS011;11076;47.942;11.804;2024-01-16T05:08:13;3.53;;;2.57;;
21827;SDS011;11076;47.942;11.804;2024-01-16T05:13:16;8.10;;;4.17;;
21827;SDS011;11076;47.942;11.804;2024-01-16T05:18:18;3.97;;;3.23;;
21827;SDS011;11076;47.942;11.804;2024-01-16T05:23:21;4.47;;;2.83;;
21827;SDS011;11076;47.942;11.804;2024-01-16T05:28:24;3.60;;;2.50;;
21827;SDS011;11076;47.942;11.804;2024-01-16T05:33:26;8.30;;;4.33;;
21827;SDS011;11076;47.942;11.804;2024-01-16T05:38:29;3.83;;;2.63;;
21827;SDS011;11076;47.942;11.804;2024-01-16T05:43:31;2.87;;;1.57;;
21827;SDS011;11076;47.942;11.804;2024-01-16T05:48:33;8.70;;;2.37;;
21827;SDS011;11076;47.942;11.804;2024-01-16T05:53:36;2.93;;;2.63;;
21827;SDS011;11076;47.942;11.804;2024-01-16T05:58:39;2.17;;;2.03;;
21827;SDS011;11076;47.942;11.804;2024-01-16T06:03:41;4.90;;;2.40;;
21827;SDS011;11076;47.942;11.804;2024-01-16T06:08:46;2.93;;;2.53;;
21827;SDS011;11076;47.942;11.804;2024-01-16T06:13:48;3.20;;;2.90;;
21827;SDS011;11076;47.942;11.804;2024-01-16T06:18:50;6.43;;;2.77;;
21827;SDS011;11076;47.942;11.804;2024-01-16T06:23:53;4.73;;;2.47;;
21827;SDS011;11076;47.942;11.804;2024-01-16T06:28:55;2.43;;;2.13;;
21827;SDS011;11076;47.942;11.804;2024-01-16T06:33:58;3.70;;;2.97;;
21827;SDS011;11076;47.942;11.804;2024-01-16T06:39:00;1.90;;;1.80;;
21827;SDS011;11076;47.942;11.804;2024-01-16T06:44:02;5.47;;;2.37;;
21827;SDS011;11076;47.942;11.804;2024-01-16T06:49:05;3.20;;;2.50;;
21827;SDS011;11076;47.942;11.804;2024-01-16T06:54:08;5.20;;;3.33;;
21827;SDS011;11076;47.942;11.804;2024-01-16T06:59:11;5.43;;;2.73;;
21827;SDS011;11076;47.942;11.804;2024-01-16T07:04:13;5.77;;;3.30;;
21827;SDS011;11076;47.942;11.804;2024-01-16T07:09:18;3.73;;;2.67;;
21827;SDS011;11076;47.942;11.804;2024-01-16T07:14:22;8.43;;;3.50;;
21827;SDS011;11076;47.942;11.804;2024-01-16T07:19:25;5.67;;;2.23;;
21827;SDS011;11076;47.942;11.804;2024-01-16T07:24:27;4.33;;;2.50;;
21827;SDS011;11076;47.942;11.804;2024-01-16T07:29:30;3.73;;;2.43;;
21827;SDS011;11076;47.942;11.804;2024-01-16T07:34:32;3.70;;;2.07;;
21827;SDS011;11076;47.942;11.804;2024-01-16T07:39:35;3.03;;;2.30;;
21827;SDS011;11076;47.942;11.804;2024-01-16T07:44:37;4.80;;;2.40;;
21827;SDS011;11076;47.942;11.804;2024-01-16T07:49:39;3.20;;;1.93;;
21827;SDS011;11076;47.942;11.804;2024-01-16T07:54:42;7.10;;;2.80;;
21827;SDS011;11076;47.942;11.804;2024-01-16T07:59:44;3.90;;;2.60;;
21827;SDS011;11076;47.942;11.804;2024-01-16T08:04:48;7.70;;;2.63;;
21827;SDS011;11076;47.942;11.804;2024-01-16T08:09:50;7.90;;;4.00;;
21827;SDS011;11076;47.942;11.804;2024-01-16T08:14:53;8.07;;;5.07;;
21827;SDS011;11076;47.942;11.804;2024-01-16T08:19:55;2.47;;;2.27;;
21827;SDS011;11076;47.942;11.804;2024-01-16T08:24:57;3.90;;;2.10;;
21827;SDS011;11076;47.942;11.804;2024-01-16T08:30:00;5.87;;;3.07;;
21827;SDS011;11076;47.942;11.804;2024-01-16T08:35:02;7.20;;;2.30;;
21827;SDS011;11076;47.942;11.804;2024-01-16T08:40:07;6.80;;;4.00;;
21827;SDS011;11076;47.942;11.804;2024-01-16T08:45:10;10.10;;;5.00;;
21827;SDS011;11076;47.942;11.804;2024-01-16T08:50:12;10.77;;;4.77;;
21827;SDS011;11076;47.942;11.804;2024-01-16T08:55:15;8.43;;;4.00;;
21827;SDS011;11076;47.942;11.804;2024-01-16T09:00:17;5.70;;;3.30;;
21827;SDS011;11076;47.942;11.804;2024-01-16T09:05:20;5.93;;;2.83;;
21827;SDS011;11076;47.942;11.804;2024-01-16T09:10:27;7.90;;;4.17;;
21827;SDS011;11076;47.942;11.804;2024-01-16T09:15:29;6.43;;;3.73;;
21827;SDS011;11076;47.942;11.804;2024-01-16T09:20:32;16.03;;;7.33;;
21827;SDS011;11076;47.942;11.804;2024-01-16T09:25:35;5.77;;;3.20;;
21827;SDS011;11076;47.942;11.804;2024-01-16T09:30:37;8.30;;;4.37;;
21827;SDS011;11076;47.942;11.804;2024-01-16T09:35:40;5.90;;;3.73;;
21827;SDS011;11076;47.942;11.804;2024-01-16T09:40:42;3.30;;;2.67;;
21827;SDS011;11076;47.942;11.804;2024-01-16T09:45:45;6.37;;;3.33;;
21827;SDS011;11076;47.942;11.804;2024-01-16T09:50:51;5.40;;;3.07;;
21827;SDS011;11076;47.942;11.804;2024-01-16T09:55:54;5.47;;;2.83;;
21827;SDS011;11076;47.942;11.804;2024-01-16T10:01:00;4.57;;;2.63;;
21827;SDS011;11076;47.942;11.804;2024-01-16T10:06:06;3.50;;;2.83;;
21827;SDS011;11076;47.942;11.804;2024-01-16T10:11:09;4.80;;;2.77;;
21827;SDS011;11076;47.942;11.804;2024-01-16T10:16:11;3.57;;;2.53;;
21827;SDS011;11076;47.942;11.804;2024-01-16T10:21:20;3.60;;;2.73;;
21827;SDS011;11076;47.942;11.804;2024-01-16T10:26:24;3.73;;;2.50;;
21827;SDS011;11076;47.942;11.804;2024-01-16T10:31:27;2.60;;;2.30;;
21827;SDS011;11076;47.942;11.804;2024-01-16T10:36:33;3.20;;;2.27;;
21827;SDS011;11076;47.942;11.804;2024-01-16T10:41:35;8.87;;;3.63;;
21827;SDS011;11076;47.942;11.804;2024-01-16T10:46:39;19.13;;;6.93;;
21827;SDS011;11076;47.942;11.804;2024-01-16T10:51:43;3.87;;;2.63;;
21827;SDS011;11076;47.942;11.804;2024-01-16T10:56:48;5.27;;;2.90;;
21827;SDS011;11076;47.942;11.804;2024-01-16T11:01:52;7.80;;;5.30;;
21827;SDS011;11076;47.942;11.804;2024-01-16T11:06:59;7.90;;;3.50;;
21827;SDS011;11076;47.942;11.804;2024-01-16T11:12:02;6.43;;;3.07;;
21827;SDS011;11076;47.942;11.804;2024-01-16T11:17:05;5.20;;;3.30;;
21827;SDS011;11076;47.942;11.804;2024-01-16T11:22:09;6.00;;;3.30;;
21827;SDS011;11076;47.942;11.804;2024-01-16T11:27:22;4.20;;;3.07;;
21827;SDS011;11076;47.942;11.804;2024-01-16T11:32:41;4.90;;;3.00;;
21827;SDS011;11076;47.942;11.804;2024-01-16T11:37:43;3.30;;;2.37;;
21827;SDS011;11076;47.942;11.804;2024-01-16T11:42:47;4.27;;;2.50;;
21827;SDS011;11076;47.942;11.804;2024-01-16T11:48:06;5.10;;;2.90;;
21827;SDS011;11076;47.942;11.804;2024-01-16T11:53:10;5.03;;;2.70;;
21827;SDS011;11076;47.942;11.804;2024-01-16T12:04:04;4.23;;;3.07;;
21827;SDS011;11076;47.942;11.804;2024-01-16T12:09:11;2.40;;;2.10;;
21827;SDS011;11076;47.942;11.804;2024-01-16T12:14:15;3.07;;;2.33;;
21827;SDS011;11076;47.942;11.804;2024-01-16T12:19:18;2.80;;;2.53;;
21827;SDS011;11076;47.942;11.804;2024-01-16T12:24:21;7.07;;;4.10;;
21827;SDS011;11076;47.942;11.804;2024-01-16T12:29:23;3.00;;;2.47;;
21827;SDS011;11076;47.942;11.804;2024-01-16T12:34:25;3.07;;;2.17;;
21827;SDS011;11076;47.942;11.804;2024-01-16T12:39:28;5.87;;;3.23;;
21827;SDS011;11076;47.942;11.804;2024-01-16T12:44:30;7.17;;;2.60;;
21827;SDS011;11076;47.942;11.804;2024-01-16T12:49:33;4.53;;;3.40;;
21827;SDS011;11076;47.942;11.804;2024-01-16T12:54:42;6.33;;;3.50;;
21827;SDS011;11076;47.942;11.804;2024-01-16T12:59:45;5.63;;;3.50;;
21827;SDS011;11076;47.942;11.804;2024-01-16T13:04:48;6.07;;;3.60;;
21827;SDS011;11076;47.942;11.804;2024-01-16T13:10:11;5.87;;;3.80;;
21827;SDS011;11076;47.942;11.804;2024-01-16T13:15:18;7.47;;;4.43;;
21827;SDS011;11076;47.942;11.804;2024-01-16T13:20:20;4.57;;;3.50;;
21827;SDS011;11076;47.942;11.804;2024-01-16T13:25:22;7.37;;;4.40;;
21827;SDS011;11076;47.942;11.804;2024-01-16T13:30:25;4.70;;;3.33;;
21827;SDS011;11076;47.942;11.804;2024-01-16T13:35:31;7.33;;;3.63;;
21827;SDS011;11076;47.942;11.804;2024-01-16T13:40:34;4.70;;;3.33;;
21827;SDS011;11076;47.942;11.804;2024-01-16T13:45:37;5.80;;;3.77;;
21827;SDS011;11076;47.942;11.804;2024-01-16T13:50:40;6.00;;;4.20;;
21827;SDS011;11076;47.942;11.804;2024-01-16T13:55:42;6.07;;;3.37;;
21827;SDS011;11076;47.942;11.804;2024-01-16T14:00:45;5.43;;;3.23;;
21827;SDS011;11076;47.942;11.804;2024-01-16T14:05:47;7.37;;;3.67;;
21827;SDS011;11076;47.942;11.804;2024-01-16T14:10:50;5.23;;;3.20;;
21827;SDS011;11076;47.942;11.804;2024-01-16T14:15:53;7.43;;;4.17;;
21827;SDS011;11076;47.942;11.804;2024-01-16T14:20:55;22.40;;;4.60;;
21827;SDS011;11076;47.942;11.804;2024-01-16T14:25:58;5.50;;;3.93;;
21827;SDS011;11076;47.942;11.804;2024-01-16T14:31:03;6.83;;;3.80;;
21827;SDS011;11076;47.942;11.804;2024-01-16T14:36:05;6.20;;;3.97;;
21827;SDS011;11076;47.942;11.804;2024-01-16T14:41:08;7.80;;;4.67;;
21827;SDS011;11076;47.942;11.804;2024-01-16T14:46:10;8.00;;;4.67;;
21827;SDS011;11076;47.942;11.804;2024-01-16T14:51:13;7.93;;;4.40;;
21827;SDS011;11076;47.942;11.804;2024-01-16T14:56:15;13.90;;;4.00;;
21827;SDS011;11076;47.942;11.804;2024-01-16T15:01:18;6.70;;;4.20;;
21827;SDS011;11076;47.942;11.804;2024-01-16T15:06:21;18.13;;;7.73;;
21827;SDS011;11076;47.942;11.804;2024-01-16T15:11:24;7.90;;;4.97;;
21827;SDS011;11076;47.942;11.804;2024-01-16T15:16:30;8.97;;;4.20;;
21827;SDS011;11076;47.942;11.804;2024-01-16T15:21:33;9.37;;;5.83;;
21827;SDS011;11076;47.942;11.804;2024-01-16T15:26:35;37.70;;;15.87;;
21827;SDS011;11076;47.942;11.804;2024-01-16T15:31:38;94.43;;;37.40;;
21827;SDS011;11076;47.942;11.804;2024-01-16T15:36:40;36.50;;;15.50;;
21827;SDS011;11076;47.942;11.804;2024-01-16T15:41:43;9.73;;;6.47;;
21827;SDS011;11076;47.942;11.804;2024-01-16T15:51:57;41.20;;;17.43;;
21827;SDS011;11076;47.942;11.804;2024-01-16T15:57:01;30.73;;;14.73;;
21827;SDS011;11076;47.942;11.804;2024-01-16T16:02:03;68.00;;;28.33;;
21827;SDS011;11076;47.942;11.804;2024-01-16T16:07:06;10.57;;;5.47;;
21827;SDS011;11076;47.942;11.804;2024-01-16T16:12:09;5.93;;;4.70;;
21827;SDS011;11076;47.942;11.804;2024-01-16T16:17:12;5.73;;;4.00;;
21827;SDS011;11076;47.942;11.804;2024-01-16T16:22:14;13.37;;;5.90;;
21827;SDS011;11076;47.942;11.804;2024-01-16T16:27:22;6.00;;;3.70;;
21827;SDS011;11076;47.942;11.804;2024-01-16T16:32:28;9.00;;;3.97;;
21827;SDS011;11076;47.942;11.804;2024-01-16T16:37:32;6.73;;;3.57;;
21827;SDS011;11076;47.942;11.804;2024-01-16T16:42:35;9.13;;;4.20;;
21827;SDS011;11076;47.942;11.804;2024-01-16T16:47:38;6.07;;;3.30;;
21827;SDS011;11076;47.942;11.804;2024-01-16T16:52:40;9.57;;;3.67;;
21827;SDS011;11076;47.942;11.804;2024-01-16T16:57:43;7.27;;;3.20;;
21827;SDS011;11076;47.942;11.804;2024-01-16T17:02:46;6.30;;;3.57;;
21827;SDS011;11076;47.942;11.804;2024-01-16T17:07:48;4.23;;;3.20;;
21827;SDS011;11076;47.942;11.804;2024-01-16T17:12:51;7.97;;;3.47;;
21827;SDS011;11076;47.942;11.804;2024-01-16T17:17:53;6.37;;;3.70;;
21827;SDS011;11076;47.942;11.804;2024-01-16T17:22:56;6.07;;;2.80;;
21827;SDS011;11076;47.942;11.804;2024-01-16T17:27:58;4.07;;;2.90;;
21827;SDS011;11076;47.942;11.804;2024-01-16T17:33:01;3.70;;;3.27;;
21827;SDS011;11076;47.942;11.804;2024-01-16T17:38:05;6.57;;;3.27;;
21827;SDS011;11076;47.942;11.804;2024-01-16T17:43:07;5.13;;;2.90;;
21827;SDS011;11076;47.942;11.804;2024-01-16T17:48:10;5.17;;;3.43;;
21827;SDS011;11076;47.942;11.804;2024-01-16T17:53:12;4.57;;;2.70;;
21827;SDS011;11076;47.942;11.804;2024-01-16T17:58:16;5.03;;;3.40;;
21827;SDS011;11076;47.942;11.804;2024-01-16T18:03:23;6.53;;;3.80;;
21827;SDS011;11076;47.942;11.804;2024-01-16T18:08:35;6.83;;;3.50;;
21827;SDS011;11076;47.942;11.804;2024-01-16T18:13:42;6.03;;;3.80;;
21827;SDS011;11076;47.942;11.804;2024-01-16T18:18:44;4.67;;;2.73;;
21827;SDS011;11076;47.942;11.804;2024-01-16T18:23:47;3.83;;;2.77;;
21827;SDS011;11076;47.942;11.804;2024-01-16T18:28:49;5.60;;;3.60;;
21827;SDS011;11076;47.942;11.804;2024-01-16T18:33:52;7.57;;;3.03;;
21827;SDS011;11076;47.942;11.804;2024-01-16T18:38:55;8.90;;;4.30;;
21827;SDS011;11076;47.942;11.804;2024-01-16T18:43:57;9.53;;;3.93;;
21827;SDS011;11076;47.942;11.804;2024-01-16T18:49:00;5.03;;;3.70;;
21827;SDS011;11076;47.942;11.804;2024-01-16T18:54:02;12.30;;;3.70;;
21827;SDS011;11076;47.942;11.804;2024-01-16T18:59:04;5.50;;;3.50;;
21827;SDS011;11076;47.942;11.804;2024-01-16T19:04:08;5.27;;;3.27;;
21827;SDS011;11076;47.942;11.804;2024-01-16T19:09:14;3.97;;;3.50;;
21827;SDS011;11076;47.942;11.804;2024-01-16T19:14:19;3.97;;;2.97;;
21827;SDS011;11076;47.942;11.804;2024-01-16T19:19:21;5.40;;;3.00;;
21827;SDS011;11076;47.942;11.804;2024-01-16T19:24:27;3.90;;;2.90;;
21827;SDS011;11076;47.942;11.804;2024-01-16T19:29:30;6.60;;;3.60;;
21827;SDS011;11076;47.942;11.804;2024-01-16T19:34:32;5.73;;;3.57;;
21827;SDS011;11076;47.942;11.804;2024-01-16T19:39:34;4.87;;;3.37;;
21827;SDS011;11076;47.942;11.804;2024-01-16T19:44:46;7.27;;;4.10;;
21827;SDS011;11076;47.942;11.804;2024-01-16T19:49:49;7.03;;;4.67;;
21827;SDS011;11076;47.942;11.804;2024-01-16T19:54:51;12.80;;;5.23;;
21827;SDS011;11076;47.942;11.804;2024-01-16T19:59:55;5.97;;;4.27;;
21827;SDS011;11076;47.942;11.804;2024-01-16T20:04:58;5.33;;;3.57;;
21827;SDS011;11076;47.942;11.804;2024-01-16T20:10:00;6.70;;;4.53;;
21827;SDS011;11076;47.942;11.804;2024-01-16T20:15:03;5.17;;;3.73;;
21827;SDS011;11076;47.942;11.804;2024-01-16T20:20:06;6.13;;;4.33;;
21827;SDS011;11076;47.942;11.804;2024-01-16T20:25:11;12.10;;;4.27;;
21827;SDS011;11076;47.942;11.804;2024-01-16T20:30:17;5.87;;;4.37;;
21827;SDS011;11076;47.942;11.804;2024-01-16T20:35:19;7.60;;;4.63;;
21827;SDS011;11076;47.942;11.804;2024-01-16T20:40:23;7.53;;;4.30;;
21827;SDS011;11076;47.942;11.804;2024-01-16T20:45:26;7.00;;;3.33;;
21827;SDS011;11076;47.942;11.804;2024-01-16T20:50:29;3.47;;;3.13;;
21827;SDS011;11076;47.942;11.804;2024-01-16T20:55:31;9.97;;;4.83;;
21827;SDS011;11076;47.942;11.804;2024-01-16T21:00:34;5.60;;;4.50;;
21827;SDS011;11076;47.942;11.804;2024-01-16T21:05:36;6.47;;;4.13;;
21827;SDS011;11076;47.942;11.804;2024-01-16T21:10:39;6.50;;;4.43;;
21827;SDS011;11076;47.942;11.804;2024-01-16T21:15:42;7.67;;;4.43;;
21827;SDS011;11076;47.942;11.804;2024-01-16T21:20:45;6.97;;;4.07;;
21827;SDS011;11076;47.942;11.804;2024-01-16T21:25:47;15.07;;;6.63;;
21827;SDS011;11076;47.942;11.804;2024-01-16T21:30:50;11.00;;;6.13;;
21827;SDS011;11076;47.942;11.804;2024-01-16T21:35:56;20.37;;;7.70;;
21827;SDS011;11076;47.942;11.804;2024-01-16T21:40:59;31.67;;;5.90;;
21827;SDS011;11076;47.942;11.804;2024-01-16T21:46:02;31.23;;;11.33;;
21827;SDS011;11076;47.942;11.804;2024-01-16T21:51:05;23.77;;;11.23;;
21827;SDS011;11076;47.942;11.804;2024-01-16T21:56:07;29.63;;;13.50;;
21827;SDS011;11076;47.942;11.804;2024-01-16T22:01:11;26.47;;;12.13;;
21827;SDS011;11076;47.942;11.804;2024-01-16T22:06:14;34.67;;;13.10;;
21827;SDS011;11076;47.942;11.804;2024-01-16T22:11:17;15.10;;;6.23;;
21827;SDS011;11076;47.942;11.804;2024-01-16T22:16:19;11.90;;;7.37;;
21827;SDS011;11076;47.942;11.804;2024-01-16T22:21:21;9.50;;;5.37;;
21827;SDS011;11076;47.942;11.804;2024-01-16T22:26:24;9.47;;;5.60;;
21827;SDS011;11076;47.942;11.804;2024-01-16T22:31:26;14.33;;;6.87;;
21827;SDS011;11076;47.942;11.804;2024-01-16T22:36:29;14.57;;;6.73;;
21827;SDS011;11076;47.942;11.804;2024-01-16T22:41:31;11.13;;;6.10;;
21827;SDS011;11076;47.942;11.804;2024-01-16T22:46:36;8.97;;;5.93;;
21827;SDS011;11076;47.942;11.804;2024-01-16T22:51:38;11.50;;;5.93;;
21827;SDS011;11076;47.942;11.804;2024-01-16T22:56:41;7.57;;;4.30;;
21827;SDS011;11076;47.942;11.804;2024-01-16T23:01:46;7.63;;;4.93;;
21827;SDS011;11076;47.942;11.804;2024-01-16T23:06:49;8.43;;;4.60;;
21827;SDS011;11076;47.942;11.804;2024-01-16T23:11:53;6.27;;;4.13;;
21827;SDS011;11076;47.942;11.804;2024-01-16T23:16:55;5.63;;;4.23;;
21827;SDS011;11076;47.942;11.804;2024-01-16T23:21:58;8.10;;;4.77;;
21827;SDS011;11076;47.942;11.804;2024-01-16T23:27:01;7.40;;;4.57;;
21827;SDS011;11076;47.942;11.804;2024-01-16T23:32:04;9.87;;;6.80;;
21827;SDS011;11076;47.942;11.804;2024-01-16T23:37:06;8.07;;;5.40;;
21827;SDS011;11076;47.942;11.804;2024-01-16T23:42:09;21.30;;;4.77;;
21827;SDS011;11076;47.942;11.804;2024-01-16T23:47:17;9.47;;;5.20;;
21827;SDS011;11076;47.942;11.804;2024-01-16T23:52:19;4.43;;;3.47;;
21827;SDS011;11076;47.942;11.804;2024-01-16T23:57:22;12.23;;;6.47;;
